Farmington River @ Unionville, Ct

Farmington River at Unionville
 Total Drainage Area: 378 sq. miles 
 Drainage Area Controlled by Corps Dams: 139 sq. miles (37%) 
 Warning Flow/Stage: 3,650 cfs / 9.0 feet 
 Flood Flow/Stage: 8,710 cfs / 12.0 feet 
Date Time
(Eastern)
Stage
(ft)
Flow
(cfs)
CSM
(cfs / sq. mi.)
Jun-25 02:30 am 5.54 458 1.2
Jun-25 01:30 am 5.56 468 1.2
Jun-25 12:30 am 5.57 472 1.3
Jun-24 11:30 pm 5.57 472 1.3
Jun-24 10:30 pm 5.58 477 1.3
Jun-24 09:30 pm 5.58 477 1.3
Jun-24 08:30 pm 5.59 482 1.3
Jun-24 07:30 pm 5.61 492 1.3
Jun-24 06:30 pm 5.64 507 1.3
Jun-24 05:30 pm 5.67 522 1.4
Jun-24 04:30 pm 5.70 537 1.4
Jun-24 03:30 pm 5.74 558 1.5
Jun-24 02:30 pm 5.77 575 1.5
Jun-24 01:30 pm 5.79 586 1.6
Jun-24 12:30 pm 5.79 586 1.6
Jun-24 11:30 am 5.80 591 1.6
Jun-24 10:30 am 5.81 597 1.6
Jun-24 09:30 am 5.83 608 1.6
Jun-24 08:30 am 5.85 619 1.6
Jun-24 07:30 am 5.88 637 1.7
Jun-24 06:30 am 5.90 649 1.7
Jun-24 05:30 am 5.91 655 1.7
Jun-24 04:30 am 5.92 660 1.8
Jun-24 03:30 am 5.93 667 1.8
Jun-24 02:30 am 5.95 679 1.8
Report Generated June 25, 2024 02:48 am